sensor_id;sensor_type;location;lat;lon;timestamp;pressure;altitude;pressure_sealevel;temperature;humidity
63819;BME280;49970;54.976;73.248;2022-07-06T00:00:28;98868.66;;;16.22;98.42
63819;BME280;49970;54.976;73.248;2022-07-06T00:03:03;98886.44;;;16.30;98.57
63819;BME280;49970;54.976;73.248;2022-07-06T00:05:29;98887.94;;;16.32;98.56
63819;BME280;49970;54.976;73.248;2022-07-06T00:07:55;98883.06;;;16.36;98.36
63819;BME280;49970;54.976;73.248;2022-07-06T00:10:22;98884.09;;;16.35;98.18
63819;BME280;49970;54.976;73.248;2022-07-06T00:12:48;98887.75;;;16.34;98.13
63819;BME280;49970;54.976;73.248;2022-07-06T00:15:14;98886.09;;;16.33;98.06
63819;BME280;49970;54.976;73.248;2022-07-06T00:17:40;98896.97;;;16.31;98.41
63819;BME280;49970;54.976;73.248;2022-07-06T00:20:07;98891.50;;;16.25;98.69
63819;BME280;49970;54.976;73.248;2022-07-06T00:22:34;98897.19;;;16.22;99.10
63819;BME280;49970;54.976;73.248;2022-07-06T00:25:00;98894.72;;;16.20;99.10
63819;BME280;49970;54.976;73.248;2022-07-06T00:27:26;98904.38;;;16.21;99.77
63819;BME280;49970;54.976;73.248;2022-07-06T00:29:53;98914.44;;;16.19;99.58
63819;BME280;49970;54.976;73.248;2022-07-06T00:32:19;98913.47;;;16.12;99.45
63819;BME280;49970;54.976;73.248;2022-07-06T00:34:46;98918.19;;;16.10;99.53
63819;BME280;49970;54.976;73.248;2022-07-06T00:37:18;98916.88;;;16.06;99.89
63819;BME280;49970;54.976;73.248;2022-07-06T00:39:54;98933.72;;;16.06;100.00
63819;BME280;49970;54.976;73.248;2022-07-06T00:42:20;98924.50;;;16.09;100.00
63819;BME280;49970;54.976;73.248;2022-07-06T00:44:46;98924.34;;;16.10;99.74
63819;BME280;49970;54.976;73.248;2022-07-06T00:47:12;98926.19;;;16.10;100.00
63819;BME280;49970;54.976;73.248;2022-07-06T00:49:39;98936.34;;;16.14;99.96
63819;BME280;49970;54.976;73.248;2022-07-06T00:52:23;98930.47;;;16.19;100.00
63819;BME280;49970;54.976;73.248;2022-07-06T00:54:50;98935.75;;;16.27;100.00
63819;BME280;49970;54.976;73.248;2022-07-06T00:57:17;98945.53;;;16.35;100.00
63819;BME280;49970;54.976;73.248;2022-07-06T00:59:44;98939.81;;;16.38;99.83
63819;BME280;49970;54.976;73.248;2022-07-06T01:13:59;98971.06;;;16.37;99.71
63819;BME280;49970;54.976;73.248;2022-07-06T01:18:14;98966.72;;;16.36;99.42
63819;BME280;49970;54.976;73.248;2022-07-06T01:22:06;98978.06;;;16.38;99.40
63819;BME280;49970;54.976;73.248;2022-07-06T01:25:57;98979.22;;;16.44;99.61
63819;BME280;49970;54.976;73.248;2022-07-06T01:29:48;98992.84;;;16.49;99.07
63819;BME280;49970;54.976;73.248;2022-07-06T01:33:39;98999.56;;;16.45;99.49
63819;BME280;49970;54.976;73.248;2022-07-06T01:37:55;99007.72;;;16.52;99.55
63819;BME280;49970;54.976;73.248;2022-07-06T01:41:47;99006.63;;;16.61;99.26
63819;BME280;49970;54.976;73.248;2022-07-06T01:49:52;99013.56;;;16.70;98.80
63819;BME280;49970;54.976;73.248;2022-07-06T01:57:57;99015.72;;;16.98;98.35
63819;BME280;49970;54.976;73.248;2022-07-06T02:01:53;99028.34;;;17.04;98.12
63819;BME280;49970;54.976;73.248;2022-07-06T02:05:44;99023.25;;;17.09;97.92
63819;BME280;49970;54.976;73.248;2022-07-06T02:09:35;99028.25;;;17.12;97.18
63819;BME280;49970;54.976;73.248;2022-07-06T02:13:27;99032.13;;;17.09;97.23
63819;BME280;49970;54.976;73.248;2022-07-06T02:17:20;99035.09;;;17.14;97.14
63819;BME280;49970;54.976;73.248;2022-07-06T02:21:11;99044.97;;;17.14;97.05
63819;BME280;49970;54.976;73.248;2022-07-06T02:25:02;99045.53;;;17.24;97.36
63819;BME280;49970;54.976;73.248;2022-07-06T02:32:42;99051.09;;;17.37;96.71
63819;BME280;49970;54.976;73.248;2022-07-06T02:36:34;99057.72;;;17.41;96.40
63819;BME280;49970;54.976;73.248;2022-07-06T02:40:26;99057.00;;;17.48;96.22
63819;BME280;49970;54.976;73.248;2022-07-06T02:44:15;99068.34;;;17.50;95.63
63819;BME280;49970;54.976;73.248;2022-07-06T02:52:20;99075.75;;;17.62;95.20
63819;BME280;49970;54.976;73.248;2022-07-06T02:56:12;99064.66;;;17.65;94.56
63819;BME280;49970;54.976;73.248;2022-07-06T03:03:36;99077.69;;;17.68;94.13
63819;BME280;49970;54.976;73.248;2022-07-06T03:06:02;99077.31;;;17.72;94.23
63819;BME280;49970;54.976;73.248;2022-07-06T03:08:30;99083.00;;;17.77;94.04
63819;BME280;49970;54.976;73.248;2022-07-06T03:10:57;99082.59;;;17.80;93.89
63819;BME280;49970;54.976;73.248;2022-07-06T03:13:23;99084.72;;;17.84;94.08
63819;BME280;49970;54.976;73.248;2022-07-06T03:15:50;99079.56;;;17.83;94.24
63819;BME280;49970;54.976;73.248;2022-07-06T03:18:17;99081.69;;;17.87;94.12
63819;BME280;49970;54.976;73.248;2022-07-06T03:20:43;99083.16;;;17.90;94.33
63819;BME280;49970;54.976;73.248;2022-07-06T03:23:18;99091.66;;;17.94;94.19
63819;BME280;49970;54.976;73.248;2022-07-06T03:25:45;99084.25;;;17.96;93.72
63819;BME280;49970;54.976;73.248;2022-07-06T03:28:22;99091.94;;;17.99;93.50
63819;BME280;49970;54.976;73.248;2022-07-06T03:30:48;99091.28;;;17.97;93.83
63819;BME280;49970;54.976;73.248;2022-07-06T03:33:14;99101.81;;;17.98;94.01
63819;BME280;49970;54.976;73.248;2022-07-06T03:35:41;99091.28;;;17.97;93.99
63819;BME280;49970;54.976;73.248;2022-07-06T03:38:09;99109.47;;;18.01;94.38
63819;BME280;49970;54.976;73.248;2022-07-06T03:40:36;99111.16;;;18.02;93.94
63819;BME280;49970;54.976;73.248;2022-07-06T03:43:03;99110.31;;;18.02;93.68
63819;BME280;49970;54.976;73.248;2022-07-06T03:45:53;99105.94;;;18.01;93.88
63819;BME280;49970;54.976;73.248;2022-07-06T03:49:50;99104.97;;;18.02;93.86
63819;BME280;49970;54.976;73.248;2022-07-06T03:52:29;99113.63;;;18.04;93.46
63819;BME280;49970;54.976;73.248;2022-07-06T03:55:20;99115.69;;;18.02;93.45
63819;BME280;49970;54.976;73.248;2022-07-06T03:58:46;99116.66;;;18.01;93.99
63819;BME280;49970;54.976;73.248;2022-07-06T04:01:13;99115.69;;;18.02;93.78
63819;BME280;49970;54.976;73.248;2022-07-06T04:03:39;99121.03;;;18.02;94.04
63819;BME280;49970;54.976;73.248;2022-07-06T04:06:06;99119.19;;;18.02;93.83
63819;BME280;49970;54.976;73.248;2022-07-06T04:08:33;99122.50;;;18.04;93.73
63819;BME280;49970;54.976;73.248;2022-07-06T04:11:01;99113.00;;;18.02;93.63
63819;BME280;49970;54.976;73.248;2022-07-06T04:13:27;99129.25;;;18.00;93.60
63819;BME280;49970;54.976;73.248;2022-07-06T04:15:54;99127.94;;;17.96;93.45
63819;BME280;49970;54.976;73.248;2022-07-06T04:18:21;99130.00;;;17.94;93.06
63819;BME280;49970;54.976;73.248;2022-07-06T04:20:52;99138.66;;;17.96;92.90
63819;BME280;49970;54.976;73.248;2022-07-06T04:23:18;99144.69;;;17.98;92.76
63819;BME280;49970;54.976;73.248;2022-07-06T04:25:45;99144.13;;;18.03;92.72
63819;BME280;49970;54.976;73.248;2022-07-06T04:28:11;99135.78;;;18.12;92.74
63819;BME280;49970;54.976;73.248;2022-07-06T04:30:38;99118.53;;;18.15;92.44
63819;BME280;49970;54.976;73.248;2022-07-06T04:33:07;99136.22;;;18.31;92.07
63819;BME280;49970;54.976;73.248;2022-07-06T04:35:55;99149.72;;;18.37;91.40
63819;BME280;49970;54.976;73.248;2022-07-06T04:40:11;99154.97;;;18.46;91.87
63819;BME280;49970;54.976;73.248;2022-07-06T04:44:03;99149.75;;;18.59;90.73
63819;BME280;49970;54.976;73.248;2022-07-06T04:47:34;99159.22;;;18.70;89.82
63819;BME280;49970;54.976;73.248;2022-07-06T04:50:03;99162.97;;;18.75;90.75
63819;BME280;49970;54.976;73.248;2022-07-06T04:52:30;99152.78;;;18.85;89.75
63819;BME280;49970;54.976;73.248;2022-07-06T04:54:56;99162.28;;;19.09;89.52
63819;BME280;49970;54.976;73.248;2022-07-06T04:57:23;99165.03;;;19.37;88.38
63819;BME280;49970;54.976;73.248;2022-07-06T04:59:52;99164.66;;;19.40;86.65
63819;BME280;49970;54.976;73.248;2022-07-06T05:02:19;99176.06;;;19.49;87.69
63819;BME280;49970;54.976;73.248;2022-07-06T05:04:45;99177.91;;;19.70;87.20
63819;BME280;49970;54.976;73.248;2022-07-06T05:07:12;99177.41;;;19.88;85.97
63819;BME280;49970;54.976;73.248;2022-07-06T05:09:39;99170.53;;;20.13;85.38
63819;BME280;49970;54.976;73.248;2022-07-06T05:12:05;99177.28;;;20.37;83.26
63819;BME280;49970;54.976;73.248;2022-07-06T05:14:32;99174.28;;;20.54;82.45
63819;BME280;49970;54.976;73.248;2022-07-06T05:16:58;99175.16;;;20.68;82.40
63819;BME280;49970;54.976;73.248;2022-07-06T05:19:25;99177.69;;;20.82;81.44
63819;BME280;49970;54.976;73.248;2022-07-06T05:21:52;99178.16;;;20.99;80.18
63819;BME280;49970;54.976;73.248;2022-07-06T05:24:18;99193.47;;;21.19;79.27
63819;BME280;49970;54.976;73.248;2022-07-06T05:26:49;99188.13;;;21.25;79.13
63819;BME280;49970;54.976;73.248;2022-07-06T05:29:17;99199.34;;;21.35;78.64
63819;BME280;49970;54.976;73.248;2022-07-06T05:31:44;99197.88;;;21.39;79.25
63819;BME280;49970;54.976;73.248;2022-07-06T05:34:11;99208.25;;;21.43;78.07
63819;BME280;49970;54.976;73.248;2022-07-06T05:36:43;99213.38;;;21.18;78.17
63819;BME280;49970;54.976;73.248;2022-07-06T05:39:10;99214.41;;;21.03;78.67
63819;BME280;49970;54.976;73.248;2022-07-06T05:41:36;99217.06;;;20.90;78.33
63819;BME280;49970;54.976;73.248;2022-07-06T05:44:03;99219.31;;;20.86;78.29
63819;BME280;49970;54.976;73.248;2022-07-06T05:46:29;99232.31;;;20.76;78.55
63819;BME280;49970;54.976;73.248;2022-07-06T05:48:56;99232.03;;;20.58;79.42
63819;BME280;49970;54.976;73.248;2022-07-06T05:51:41;99230.09;;;20.45;79.26
63819;BME280;49970;54.976;73.248;2022-07-06T05:54:07;99238.94;;;20.39;80.06
63819;BME280;49970;54.976;73.248;2022-07-06T05:56:34;99235.19;;;20.33;80.40
63819;BME280;49970;54.976;73.248;2022-07-06T05:59:01;99237.22;;;20.31;80.61
63819;BME280;49970;54.976;73.248;2022-07-06T06:01:29;99240.19;;;20.36;80.56
63819;BME280;49970;54.976;73.248;2022-07-06T06:04:06;99235.63;;;20.37;79.43
63819;BME280;49970;54.976;73.248;2022-07-06T06:06:33;99239.97;;;20.38;79.85
63819;BME280;49970;54.976;73.248;2022-07-06T06:08:59;99238.09;;;20.38;79.93
63819;BME280;49970;54.976;73.248;2022-07-06T06:11:26;99244.81;;;20.49;80.19
63819;BME280;49970;54.976;73.248;2022-07-06T06:13:52;99248.66;;;20.75;79.31
63819;BME280;49970;54.976;73.248;2022-07-06T06:16:19;99238.16;;;20.86;79.00
63819;BME280;49970;54.976;73.248;2022-07-06T06:18:46;99240.88;;;21.00;78.09
63819;BME280;49970;54.976;73.248;2022-07-06T06:21:12;99237.56;;;20.98;77.92
63819;BME280;49970;54.976;73.248;2022-07-06T06:23:58;99237.72;;;20.89;77.52
63819;BME280;49970;54.976;73.248;2022-07-06T06:31:39;99238.34;;;20.78;77.49
63819;BME280;49970;54.976;73.248;2022-07-06T06:35:30;99245.16;;;20.74;77.60
63819;BME280;49970;54.976;73.248;2022-07-06T06:43:10;99249.94;;;20.85;77.46
63819;BME280;49970;54.976;73.248;2022-07-06T06:50:56;99256.22;;;20.99;76.48
63819;BME280;49970;54.976;73.248;2022-07-06T06:54:47;99247.53;;;21.04;75.13
63819;BME280;49970;54.976;73.248;2022-07-06T06:58:18;99252.09;;;21.10;75.44
63819;BME280;49970;54.976;73.248;2022-07-06T07:00:44;99259.56;;;21.14;75.26
63819;BME280;49970;54.976;73.248;2022-07-06T07:03:10;99256.03;;;21.14;75.16
63819;BME280;49970;54.976;73.248;2022-07-06T07:05:37;99262.50;;;21.20;76.52
63819;BME280;49970;54.976;73.248;2022-07-06T07:08:03;99256.91;;;21.21;76.72
63819;BME280;49970;54.976;73.248;2022-07-06T07:10:32;99265.00;;;21.28;76.63
63819;BME280;49970;54.976;73.248;2022-07-06T07:13:02;99253.78;;;21.31;76.15
63819;BME280;49970;54.976;73.248;2022-07-06T07:15:28;99254.47;;;21.39;75.22
63819;BME280;49970;54.976;73.248;2022-07-06T07:17:54;99254.28;;;21.48;75.77
63819;BME280;49970;54.976;73.248;2022-07-06T07:20:29;99252.81;;;21.52;74.97
63819;BME280;49970;54.976;73.248;2022-07-06T07:22:57;99251.19;;;21.57;75.28
63819;BME280;49970;54.976;73.248;2022-07-06T07:25:43;99259.69;;;21.54;75.78
63819;BME280;49970;54.976;73.248;2022-07-06T07:41:01;99264.84;;;21.56;75.16
63819;BME280;49970;54.976;73.248;2022-07-06T07:43:30;99260.09;;;21.58;74.39
63819;BME280;49970;54.976;73.248;2022-07-06T07:46:02;99266.75;;;21.62;73.57
63819;BME280;49970;54.976;73.248;2022-07-06T07:48:30;99268.78;;;21.60;73.91
63819;BME280;49970;54.976;73.248;2022-07-06T07:51:01;99258.44;;;21.50;74.23
63819;BME280;49970;54.976;73.248;2022-07-06T07:53:31;99271.28;;;21.55;75.27
63819;BME280;49970;54.976;73.248;2022-07-06T07:56:03;99275.84;;;21.54;75.38
63819;BME280;49970;54.976;73.248;2022-07-06T07:58:34;99274.19;;;21.53;74.38
63819;BME280;49970;54.976;73.248;2022-07-06T08:01:04;99282.69;;;21.50;76.21
63819;BME280;49970;54.976;73.248;2022-07-06T08:03:37;99289.94;;;21.50;76.43
63819;BME280;49970;54.976;73.248;2022-07-06T08:06:06;99290.97;;;21.49;75.92
63819;BME280;49970;54.976;73.248;2022-07-06T08:08:36;99292.19;;;21.46;75.50
63819;BME280;49970;54.976;73.248;2022-07-06T08:11:06;99291.38;;;21.46;76.20
63819;BME280;49970;54.976;73.248;2022-07-06T08:13:38;99296.13;;;21.44;76.00
63819;BME280;49970;54.976;73.248;2022-07-06T08:16:10;99299.66;;;21.44;76.00
63819;BME280;49970;54.976;73.248;2022-07-06T08:18:47;99303.38;;;21.43;77.19
63819;BME280;49970;54.976;73.248;2022-07-06T08:21:16;99301.94;;;21.47;78.80
63819;BME280;49970;54.976;73.248;2022-07-06T08:23:47;99300.72;;;21.50;78.58
63819;BME280;49970;54.976;73.248;2022-07-06T08:26:16;99302.75;;;21.48;79.17
63819;BME280;49970;54.976;73.248;2022-07-06T08:28:51;99305.28;;;21.49;78.37
63819;BME280;49970;54.976;73.248;2022-07-06T08:31:19;99301.94;;;21.47;78.01
63819;BME280;49970;54.976;73.248;2022-07-06T08:33:49;99309.41;;;21.52;78.30
63819;BME280;49970;54.976;73.248;2022-07-06T08:36:21;99311.47;;;21.56;78.90
63819;BME280;49970;54.976;73.248;2022-07-06T08:38:52;99314.59;;;21.60;77.68
63819;BME280;49970;54.976;73.248;2022-07-06T08:41:25;99316.69;;;21.64;79.15
63819;BME280;49970;54.976;73.248;2022-07-06T08:44:02;99308.41;;;21.66;78.47
63819;BME280;49970;54.976;73.248;2022-07-06T08:46:32;99318.16;;;21.80;78.35
63819;BME280;49970;54.976;73.248;2022-07-06T08:49:00;99316.91;;;21.89;79.04
63819;BME280;49970;54.976;73.248;2022-07-06T08:51:31;99321.91;;;21.99;78.14
63819;BME280;49970;54.976;73.248;2022-07-06T08:54:02;99321.91;;;22.06;77.90
63819;BME280;49970;54.976;73.248;2022-07-06T08:56:37;99317.34;;;22.06;76.61
63819;BME280;49970;54.976;73.248;2022-07-06T08:59:07;99315.91;;;22.04;78.09
63819;BME280;49970;54.976;73.248;2022-07-06T09:01:39;99323.97;;;22.10;77.99
63819;BME280;49970;54.976;73.248;2022-07-06T09:04:09;99324.00;;;22.17;77.85
63819;BME280;49970;54.976;73.248;2022-07-06T09:06:43;99311.56;;;22.16;77.41
63819;BME280;49970;54.976;73.248;2022-07-06T09:09:20;99325.88;;;22.30;78.41
63819;BME280;49970;54.976;73.248;2022-07-06T09:11:53;99327.94;;;22.34;78.39
63819;BME280;49970;54.976;73.248;2022-07-06T09:14:25;99331.47;;;22.35;78.92
63819;BME280;49970;54.976;73.248;2022-07-06T09:17:05;99336.03;;;22.41;78.79
63819;BME280;49970;54.976;73.248;2022-07-06T09:19:39;99341.81;;;22.45;78.04
63819;BME280;49970;54.976;73.248;2022-07-06T09:22:35;99337.06;;;22.47;77.32
63819;BME280;49970;54.976;73.248;2022-07-06T09:25:09;99343.91;;;22.49;76.26
63819;BME280;49970;54.976;73.248;2022-07-06T09:27:45;99344.94;;;22.48;76.53
63819;BME280;49970;54.976;73.248;2022-07-06T09:30:15;99344.31;;;22.46;76.85
63819;BME280;49970;54.976;73.248;2022-07-06T09:32:47;99351.78;;;22.51;75.03
63819;BME280;49970;54.976;73.248;2022-07-06T09:35:23;99357.19;;;22.51;76.19
63819;BME280;49970;54.976;73.248;2022-07-06T09:38:11;99355.50;;;22.56;76.45
63819;BME280;49970;54.976;73.248;2022-07-06T09:40:45;99351.75;;;22.64;76.58
63819;BME280;49970;54.976;73.248;2022-07-06T09:43:25;99351.75;;;22.71;76.14
63819;BME280;49970;54.976;73.248;2022-07-06T09:45:56;99349.03;;;22.77;76.29
63819;BME280;49970;54.976;73.248;2022-07-06T09:48:27;99354.66;;;22.82;75.89
63819;BME280;49970;54.976;73.248;2022-07-06T09:51:03;99357.94;;;22.84;75.78
63819;BME280;49970;54.976;73.248;2022-07-06T09:56:04;99360.88;;;22.83;75.69
63819;BME280;49970;54.976;73.248;2022-07-06T09:58:38;99363.34;;;22.84;74.90
63819;BME280;49970;54.976;73.248;2022-07-06T10:01:09;99367.69;;;22.85;75.16
63819;BME280;49970;54.976;73.248;2022-07-06T10:03:42;99368.13;;;22.89;75.31
63819;BME280;49970;54.976;73.248;2022-07-06T10:06:14;99378.53;;;22.92;75.19
63819;BME280;49970;54.976;73.248;2022-07-06T10:09:00;99386.63;;;22.92;73.07
63819;BME280;49970;54.976;73.248;2022-07-06T10:11:30;99381.00;;;22.87;74.21
63819;BME280;49970;54.976;73.248;2022-07-06T10:14:07;99387.00;;;22.89;74.90
63819;BME280;49970;54.976;73.248;2022-07-06T10:16:39;99379.97;;;22.88;74.82
63819;BME280;49970;54.976;73.248;2022-07-06T10:19:08;99372.09;;;22.80;75.17
63819;BME280;49970;54.976;73.248;2022-07-06T10:21:40;99384.31;;;22.89;75.46
63819;BME280;49970;54.976;73.248;2022-07-06T10:24:11;99386.59;;;22.85;74.91
63819;BME280;49970;54.976;73.248;2022-07-06T10:26:41;99378.72;;;22.84;75.80
63819;BME280;49970;54.976;73.248;2022-07-06T10:29:22;99386.19;;;22.88;76.10
63819;BME280;49970;54.976;73.248;2022-07-06T10:31:52;99383.50;;;22.88;75.35
63819;BME280;49970;54.976;73.248;2022-07-06T10:34:22;99384.53;;;22.87;74.51
63819;BME280;49970;54.976;73.248;2022-07-06T10:36:53;99390.75;;;22.81;75.34
63819;BME280;49970;54.976;73.248;2022-07-06T10:39:37;99384.16;;;22.64;74.74
63819;BME280;49970;54.976;73.248;2022-07-06T10:42:50;99395.59;;;22.59;75.49
63819;BME280;49970;54.976;73.248;2022-07-06T10:50:54;99406.59;;;22.51;75.59
63819;BME280;49970;54.976;73.248;2022-07-06T10:53:27;99399.97;;;22.41;75.96
63819;BME280;49970;54.976;73.248;2022-07-06T10:55:59;99412.81;;;22.38;75.50
63819;BME280;49970;54.976;73.248;2022-07-06T10:58:49;99402.66;;;22.27;75.86
63819;BME280;49970;54.976;73.248;2022-07-06T11:01:28;99403.88;;;22.18;75.33
63819;BME280;49970;54.976;73.248;2022-07-06T11:06:25;99406.31;;;22.06;76.20
63819;BME280;49970;54.976;73.248;2022-07-06T11:09:16;99400.31;;;22.04;77.06
63819;BME280;49970;54.976;73.248;2022-07-06T11:12:15;99403.00;;;22.11;76.57
63819;BME280;49970;54.976;73.248;2022-07-06T11:15:06;99408.03;;;22.14;75.52
63819;BME280;49970;54.976;73.248;2022-07-06T11:17:32;99419.19;;;22.11;75.40
63819;BME280;49970;54.976;73.248;2022-07-06T11:20:09;99406.13;;;22.01;75.37
63819;BME280;49970;54.976;73.248;2022-07-06T11:23:06;99415.25;;;22.00;75.72
63819;BME280;49970;54.976;73.248;2022-07-06T11:26:58;99424.38;;;21.99;75.77
63819;BME280;49970;54.976;73.248;2022-07-06T11:31:13;99420.81;;;21.85;76.03
63819;BME280;49970;54.976;73.248;2022-07-06T11:35:05;99414.78;;;21.77;76.51
63819;BME280;49970;54.976;73.248;2022-07-06T11:42:54;99428.91;;;21.85;76.49
63819;BME280;49970;54.976;73.248;2022-07-06T11:49:56;99432.41;;;21.86;76.21
63819;BME280;49970;54.976;73.248;2022-07-06T11:53:51;99436.38;;;21.83;76.37
63819;BME280;49970;54.976;73.248;2022-07-06T11:58:06;99431.38;;;21.80;76.25
63819;BME280;49970;54.976;73.248;2022-07-06T12:02:01;99444.47;;;21.83;76.92
63819;BME280;49970;54.976;73.248;2022-07-06T12:05:48;99449.03;;;21.89;76.38
63819;BME280;49970;54.976;73.248;2022-07-06T12:09:40;99448.00;;;21.97;75.87
63819;BME280;49970;54.976;73.248;2022-07-06T12:13:35;99453.44;;;22.04;75.79
63819;BME280;49970;54.976;73.248;2022-07-06T12:17:47;99438.09;;;22.04;75.88
63819;BME280;49970;54.976;73.248;2022-07-06T12:21:50;99452.19;;;22.06;75.38
63819;BME280;49970;54.976;73.248;2022-07-06T12:25:54;99447.59;;;21.94;75.94
63819;BME280;49970;54.976;73.248;2022-07-06T12:29:46;99458.38;;;21.94;76.48
63819;BME280;49970;54.976;73.248;2022-07-06T12:33:37;99455.25;;;21.90;76.59
63819;BME280;49970;54.976;73.248;2022-07-06T12:37:27;99463.53;;;21.88;76.01
63819;BME280;49970;54.976;73.248;2022-07-06T12:41:28;99479.50;;;21.83;76.38
63819;BME280;49970;54.976;73.248;2022-07-06T12:53:01;99506.81;;;21.67;76.64
63819;BME280;49970;54.976;73.248;2022-07-06T12:57:11;99510.50;;;21.59;77.08
63819;BME280;49970;54.976;73.248;2022-07-06T13:00:46;99505.50;;;21.50;76.25
63819;BME280;49970;54.976;73.248;2022-07-06T13:04:37;99503.38;;;21.45;76.54
63819;BME280;49970;54.976;73.248;2022-07-06T13:08:28;99509.38;;;21.41;77.05
63819;BME280;49970;54.976;73.248;2022-07-06T13:16:08;99512.47;;;21.37;77.33
63819;BME280;49970;54.976;73.248;2022-07-06T13:19:59;99510.16;;;21.34;76.83
63819;BME280;49970;54.976;73.248;2022-07-06T13:27:40;99512.75;;;21.21;77.17
63819;BME280;49970;54.976;73.248;2022-07-06T13:31:31;99508.78;;;21.17;77.30
63819;BME280;49970;54.976;73.248;2022-07-06T13:35:24;99508.13;;;21.15;77.57
63819;BME280;49970;54.976;73.248;2022-07-06T13:43:29;99534.00;;;21.09;77.09
63819;BME280;49970;54.976;73.248;2022-07-06T13:47:20;99532.94;;;21.04;77.07
63819;BME280;49970;54.976;73.248;2022-07-06T13:51:11;99536.34;;;20.91;77.11
63819;BME280;49970;54.976;73.248;2022-07-06T13:55:04;99527.31;;;20.77;77.41
63819;BME280;49970;54.976;73.248;2022-07-06T13:58:54;99539.63;;;20.86;77.46
63819;BME280;49970;54.976;73.248;2022-07-06T14:02:45;99538.16;;;20.84;77.73
63819;BME280;49970;54.976;73.248;2022-07-06T14:06:36;99551.41;;;20.85;77.77
63819;BME280;49970;54.976;73.248;2022-07-06T14:10:27;99562.97;;;20.79;77.99
63819;BME280;49970;54.976;73.248;2022-07-06T14:14:18;99565.56;;;20.73;77.91
63819;BME280;49970;54.976;73.248;2022-07-06T14:22:10;99569.44;;;20.63;78.40
63819;BME280;49970;54.976;73.248;2022-07-06T14:26:03;99565.28;;;20.61;78.79
63819;BME280;49970;54.976;73.248;2022-07-06T14:29:59;99571.41;;;20.55;78.93
63819;BME280;49970;54.976;73.248;2022-07-06T14:33:49;99568.66;;;20.48;79.44
63819;BME280;49970;54.976;73.248;2022-07-06T14:38:05;99578.75;;;20.46;79.28
63819;BME280;49970;54.976;73.248;2022-07-06T14:41:36;99579.56;;;20.47;79.37
63819;BME280;49970;54.976;73.248;2022-07-06T14:44:22;99582.00;;;20.42;79.53
63819;BME280;49970;54.976;73.248;2022-07-06T14:47:53;99579.91;;;20.37;79.93
63819;BME280;49970;54.976;73.248;2022-07-06T14:50:20;99585.06;;;20.38;80.17
63819;BME280;49970;54.976;73.248;2022-07-06T14:52:50;99579.91;;;20.37;80.56
63819;BME280;49970;54.976;73.248;2022-07-06T14:55:17;99586.94;;;20.38;80.57
63819;BME280;49970;54.976;73.248;2022-07-06T14:57:51;99587.13;;;20.36;81.04
63819;BME280;49970;54.976;73.248;2022-07-06T15:00:17;99588.59;;;20.39;80.82
63819;BME280;49970;54.976;73.248;2022-07-06T15:02:48;99595.66;;;20.40;81.07
63819;BME280;49970;54.976;73.248;2022-07-06T15:05:15;99587.59;;;20.40;81.04
63819;BME280;49970;54.976;73.248;2022-07-06T15:07:47;99591.47;;;20.37;81.12
63819;BME280;49970;54.976;73.248;2022-07-06T15:10:23;99590.41;;;20.32;81.23
63819;BME280;49970;54.976;73.248;2022-07-06T15:12:49;99589.53;;;20.31;81.19
63819;BME280;49970;54.976;73.248;2022-07-06T15:15:26;99590.94;;;20.27;81.24
63819;BME280;49970;54.976;73.248;2022-07-06T15:17:52;99588.38;;;20.19;81.54
63819;BME280;49970;54.976;73.248;2022-07-06T15:20:19;99596.25;;;20.21;81.79
63819;BME280;49970;54.976;73.248;2022-07-06T15:22:57;99592.28;;;20.17;81.57
63819;BME280;49970;54.976;73.248;2022-07-06T15:25:23;99594.03;;;20.09;81.58
63819;BME280;49970;54.976;73.248;2022-07-06T15:27:51;99584.69;;;20.05;81.87
63819;BME280;49970;54.976;73.248;2022-07-06T15:30:17;99589.22;;;20.05;82.12
63819;BME280;49970;54.976;73.248;2022-07-06T15:32:43;99582.19;;;20.04;81.96
63819;BME280;49970;54.976;73.248;2022-07-06T15:35:10;99590.47;;;20.02;82.15
63819;BME280;49970;54.976;73.248;2022-07-06T15:37:41;99582.66;;;19.93;82.45
63819;BME280;49970;54.976;73.248;2022-07-06T15:40:08;99584.72;;;19.90;82.61
63819;BME280;49970;54.976;73.248;2022-07-06T15:42:42;99572.09;;;19.76;82.48
63819;BME280;49970;54.976;73.248;2022-07-06T15:45:13;99589.72;;;19.79;82.96
63819;BME280;49970;54.976;73.248;2022-07-06T15:48:01;99592.50;;;19.71;83.02
63819;BME280;49970;54.976;73.248;2022-07-06T15:55:35;99610.81;;;19.52;83.46
63819;BME280;49970;54.976;73.248;2022-07-06T15:58:32;99611.34;;;19.48;83.74
63819;BME280;49970;54.976;73.248;2022-07-06T16:06:05;99618.28;;;19.42;83.91
63819;BME280;49970;54.976;73.248;2022-07-06T16:08:50;99621.66;;;19.44;83.89
63819;BME280;49970;54.976;73.248;2022-07-06T16:11:52;99635.25;;;19.42;83.83
63819;BME280;49970;54.976;73.248;2022-07-06T16:14:35;99641.16;;;19.38;84.03
63819;BME280;49970;54.976;73.248;2022-07-06T16:17:22;99640.69;;;19.34;84.03
63819;BME280;49970;54.976;73.248;2022-07-06T16:20:40;99635.50;;;19.33;84.47
63819;BME280;49970;54.976;73.248;2022-07-06T16:24:16;99638.19;;;19.33;84.55
63819;BME280;49970;54.976;73.248;2022-07-06T16:27:58;99639.84;;;19.34;84.51
63819;BME280;49970;54.976;73.248;2022-07-06T16:31:04;99640.88;;;19.33;84.46
63819;BME280;49970;54.976;73.248;2022-07-06T16:34:57;99645.59;;;19.31;84.53
63819;BME280;49970;54.976;73.248;2022-07-06T16:38:47;99643.75;;;19.31;84.36
63819;BME280;49970;54.976;73.248;2022-07-06T16:42:40;99645.44;;;19.32;84.63
63819;BME280;49970;54.976;73.248;2022-07-06T16:46:18;99652.16;;;19.28;84.99
63819;BME280;49970;54.976;73.248;2022-07-06T16:49:40;99649.00;;;19.25;85.00
63819;BME280;49970;54.976;73.248;2022-07-06T16:53:11;99652.34;;;19.27;85.12
63819;BME280;49970;54.976;73.248;2022-07-06T16:59:46;99650.38;;;19.21;85.06